Terminal Aerodrome Forecast
Issued by NWS

Current Version | Previous Version | Text Only | Print | Product List | Glossary Off
Versions: 1 2 3 4 5 6 7 8 9 10 11 12 13 14 15 16 17 18 19 20

000
FTUS41 KPBZ 240500
TAFHLG
TAF
KHLG 240531Z 2406/2506 VRB03KT P6SM SKC
     FM241100 16005KT P6SM BKN200
     FM241800 20010G22KT P6SM BKN120
     FM250300 24010KT 5SM -SN OVC025=

USA.gov is the U.S. government's official web portal to all federal, state and local government web resources and services.